createdAt,value
2022-08-09T00:02:35.000Z,100539.95
2022-08-09T00:07:39.000Z,100514.16
2022-08-09T00:12:44.000Z,100514.16
2022-08-09T00:18:21.000Z,100509.34
2022-08-09T00:22:45.000Z,100509.34
2022-08-09T00:27:37.000Z,100516.74
2022-08-09T00:32:37.000Z,100519.52
2022-08-09T00:37:40.000Z,100518.78
2022-08-09T00:44:37.000Z,100497.72
2022-08-09T00:52:40.000Z,100441.38
2022-08-09T00:57:45.000Z,100406.74
2022-08-09T01:02:36.000Z,100406.74
2022-08-09T01:08:09.000Z,100374.31
2022-08-09T01:12:36.000Z,100379.23
2022-08-09T01:17:40.000Z,100399.7
2022-08-09T01:22:35.000Z,100418.12
2022-08-09T01:27:35.000Z,100440.3
2022-08-09T01:42:35.000Z,100455.68
2022-08-09T01:47:41.000Z,100454.66
2022-08-09T01:52:36.000Z,100452.29
2022-08-09T02:02:41.000Z,100454.82
2022-08-09T02:09:04.000Z,100463.89
2022-08-09T02:18:17.000Z,100469.44
2022-08-09T02:22:45.000Z,100469.44
2022-08-09T02:28:08.000Z,100470.72
2022-08-09T02:32:37.000Z,100477.87
2022-08-09T02:37:42.000Z,100472.1
2022-08-09T02:47:35.000Z,100483.83
2022-08-09T02:52:39.000Z,100486.77
2022-08-09T02:57:35.000Z,100486.77
2022-08-09T03:02:37.000Z,100482.4
2022-08-09T03:07:35.000Z,100476.06
2022-08-09T03:12:35.000Z,100476.99
2022-08-09T03:17:37.000Z,100476.73
2022-08-09T03:22:51.000Z,100475.98
2022-08-09T03:27:35.000Z,100493.08
2022-08-09T03:32:36.000Z,100497.52
2022-08-09T03:38:08.000Z,100494.4
2022-08-09T03:42:40.000Z,100494.4
2022-08-09T03:47:36.000Z,100501.55
2022-08-09T03:52:38.000Z,100503.08
2022-08-09T03:57:35.000Z,100510.92
2022-08-09T04:02:40.000Z,100499.16
2022-08-09T04:08:03.000Z,100490.2
2022-08-09T04:12:41.000Z,100500.86
2022-08-09T04:17:35.000Z,100497.73
2022-08-09T04:22:38.000Z,100490.74
2022-08-09T04:27:34.000Z,100490.74
2022-08-09T04:32:47.000Z,100500.09
2022-08-09T04:37:56.000Z,100489.06
2022-08-09T04:42:39.000Z,100489.46
2022-08-09T04:47:43.000Z,100489.61
2022-08-09T04:52:37.000Z,100486.59
2022-08-09T05:02:37.000Z,100468.06
2022-08-09T05:07:39.000Z,100465.22
2022-08-09T05:12:34.000Z,100468.62
2022-08-09T05:18:52.000Z,100466.84
2022-08-09T05:27:35.000Z,100476.31
2022-08-09T05:32:35.000Z,100466.09
2022-08-09T05:37:36.000Z,100459.75
2022-08-09T05:42:38.000Z,100453.1
2022-08-09T05:47:40.000Z,100440.78
2022-08-09T05:52:35.000Z,100456.31
2022-08-09T05:58:06.000Z,100458.02
2022-08-09T06:02:35.000Z,100458.02
2022-08-09T06:07:37.000Z,100465.72
2022-08-09T06:12:36.000Z,100469.27
2022-08-09T06:17:35.000Z,100469.07
2022-08-09T06:22:42.000Z,100462.31
2022-08-09T06:27:52.000Z,100454.66
2022-08-09T06:33:40.000Z,100453.58
2022-08-09T06:42:43.000Z,100451.09
2022-08-09T06:47:40.000Z,100466.83
2022-08-09T06:52:35.000Z,100462.76
2022-08-09T06:57:52.000Z,100457.41
2022-08-09T07:02:41.000Z,100460.43
2022-08-09T07:08:09.000Z,100460.08
2022-08-09T07:12:52.000Z,100468.75
2022-08-09T07:17:35.000Z,100468.75
2022-08-09T07:22:53.000Z,100471.96
2022-08-09T07:27:44.000Z,100471.69
2022-08-09T07:32:44.000Z,100472.23
2022-08-09T07:42:43.000Z,100483.26
2022-08-09T07:47:35.000Z,100493.75
2022-08-09T07:52:35.000Z,100493.75
2022-08-09T07:57:46.000Z,100493.18
2022-08-09T08:02:36.000Z,100494.59
2022-08-09T08:08:56.000Z,100509.7
2022-08-09T08:18:04.000Z,100496.78
2022-08-09T08:22:39.000Z,100496.84
2022-08-09T08:27:36.000Z,100499.17
2022-08-09T08:32:39.000Z,100497.06
2022-08-09T08:37:52.000Z,100514.03
2022-08-09T08:42:42.000Z,100514.03
2022-08-09T08:47:37.000Z,100509.11
2022-08-09T08:53:08.000Z,100507.25
2022-08-09T08:57:38.000Z,100509.51
2022-08-09T09:02:41.000Z,100506.15
2022-08-09T09:07:34.000Z,100509.79
2022-08-09T09:12:39.000Z,100507.32
2022-08-09T09:17:58.000Z,100511.52
2022-08-09T09:22:38.000Z,100511.52
2022-08-09T09:28:17.000Z,100513.09
2022-08-09T09:32:45.000Z,100519.77
2022-08-09T09:37:42.000Z,100515.16
2022-08-09T09:42:35.000Z,100515.65
2022-08-09T09:47:38.000Z,100515.52
2022-08-09T09:52:47.000Z,100503.24
2022-08-09T09:58:26.000Z,100496.82
2022-08-09T10:02:36.000Z,100496.82
2022-08-09T10:07:34.000Z,100501.81
2022-08-09T10:12:41.000Z,100500.79
2022-08-09T10:18:06.000Z,100498.37
2022-08-09T10:22:42.000Z,100491.15
2022-08-09T10:27:44.000Z,100493.53
2022-08-09T10:32:52.000Z,100493.3
2022-08-09T10:37:37.000Z,100494.21
2022-08-09T10:42:37.000Z,100495.63
2022-08-09T10:48:39.000Z,100492.11
2022-08-09T10:57:40.000Z,100493.64
2022-08-09T11:03:37.000Z,100491.07
2022-08-09T11:12:35.000Z,100495.24
2022-08-09T11:17:34.000Z,100495.24
2022-08-09T11:22:35.000Z,100498.35
2022-08-09T11:28:16.000Z,100498.81
2022-08-09T11:32:35.000Z,100498.7
2022-08-09T11:37:38.000Z,100499.19
2022-08-09T11:42:36.000Z,100498.26
2022-08-09T11:47:35.000Z,100492.99
2022-08-09T11:54:10.000Z,100494.69
2022-08-09T12:02:47.000Z,100493.39
2022-08-09T12:07:36.000Z,100493.39
2022-08-09T12:12:39.000Z,100492.84
2022-08-09T12:17:54.000Z,100482.57
2022-08-09T12:22:36.000Z,100485.55
2022-08-09T12:29:33.000Z,100488.71
2022-08-09T12:37:39.000Z,100485.66
2022-08-09T12:42:35.000Z,100485.66
2022-08-09T12:47:35.000Z,100484.32
2022-08-09T12:53:02.000Z,100486.75
2022-08-09T12:57:35.000Z,100483.4
2022-08-09T13:02:36.000Z,100479.83
2022-08-09T13:08:00.000Z,100474.51
2022-08-09T13:12:35.000Z,100468.83
2022-08-09T13:18:15.000Z,100465.2
2022-08-09T13:22:55.000Z,100465.2
2022-08-09T13:27:39.000Z,100478.81
2022-08-09T13:32:39.000Z,100479.8
2022-08-09T13:38:02.000Z,100474.55
2022-08-09T13:42:36.000Z,100472.95
2022-08-09T13:48:00.000Z,100466.31
2022-08-09T13:52:34.000Z,100460.55
2022-08-09T13:57:50.000Z,100459.99
2022-08-09T14:02:36.000Z,100452
2022-08-09T14:07:40.000Z,100452
2022-08-09T14:12:36.000Z,100456.04
2022-08-09T14:17:42.000Z,100453.13
2022-08-09T14:22:34.000Z,100454.33
2022-08-09T14:27:36.000Z,100456.92
2022-08-09T14:32:41.000Z,100457.31
2022-08-09T14:37:51.000Z,100458.05
2022-08-09T14:42:50.000Z,100459.19
2022-08-09T14:47:56.000Z,100459.19
2022-08-09T14:52:35.000Z,100463.05
2022-08-09T14:57:52.000Z,100469.06
2022-08-09T15:02:34.000Z,100468.37
2022-08-09T15:07:34.000Z,100477.58
2022-08-09T15:12:37.000Z,100485.72
2022-08-09T15:17:36.000Z,100480.53
2022-08-09T15:22:36.000Z,100472.5
2022-08-09T15:27:37.000Z,100472.16
2022-08-09T15:32:40.000Z,100472.16
2022-08-09T15:38:07.000Z,100468.06
2022-08-09T15:42:35.000Z,100468.57
2022-08-09T15:48:10.000Z,100472.95
2022-08-09T15:52:35.000Z,100472.84
2022-08-09T15:57:53.000Z,100474.88
2022-08-09T16:02:37.000Z,100477.46
2022-08-09T16:07:35.000Z,100471.84
2022-08-09T16:12:41.000Z,100467.27
2022-08-09T16:17:39.000Z,100467.27
2022-08-09T16:22:37.000Z,100475.01
2022-08-09T16:27:39.000Z,100476.94
2022-08-09T16:32:45.000Z,100480.25
2022-08-09T16:38:06.000Z,100485.27
2022-08-09T16:42:36.000Z,100497.31
2022-08-09T16:48:55.000Z,100502.84
2022-08-09T16:57:35.000Z,100510.53
2022-08-09T17:02:35.000Z,100502.31
2022-08-09T17:08:58.000Z,100499.51
2022-08-09T17:17:37.000Z,100510.76
2022-08-09T17:22:46.000Z,100508.59
2022-08-09T17:27:35.000Z,100510
2022-08-09T17:32:45.000Z,100514.21
2022-08-09T17:37:39.000Z,100514.9
2022-08-09T17:42:52.000Z,100514.9
2022-08-09T17:47:40.000Z,100516.51
2022-08-09T17:52:37.000Z,100516.49
2022-08-09T17:58:14.000Z,100518.51
2022-08-09T18:02:41.000Z,100517.18
2022-08-09T18:07:40.000Z,100517.16
2022-08-09T18:12:50.000Z,100512.83
2022-08-09T18:22:35.000Z,100507.67
2022-08-09T18:28:16.000Z,100509.46
2022-08-09T18:38:04.000Z,100511.23
2022-08-09T18:47:47.000Z,100517.16
2022-08-09T18:52:45.000Z,100523.8
2022-08-09T18:57:54.000Z,100524.53
2022-08-09T19:02:42.000Z,100526.64
2022-08-09T19:07:36.000Z,100526.64
2022-08-09T19:12:35.000Z,100520.49
2022-08-09T19:17:41.000Z,100512.32
2022-08-09T19:22:36.000Z,100513.94
2022-08-09T19:27:38.000Z,100519.27
2022-08-09T19:32:39.000Z,100521.1
2022-08-09T19:42:38.000Z,100524.1
2022-08-09T19:47:37.000Z,100524.91
2022-08-09T19:52:36.000Z,100524.91
2022-08-09T19:57:36.000Z,100522.05
2022-08-09T20:04:34.000Z,100505.93
2022-08-09T20:12:47.000Z,100508.84
2022-08-09T20:17:41.000Z,100509.36
2022-08-09T20:22:45.000Z,100500.98
2022-08-09T20:27:39.000Z,100502.37
2022-08-09T20:32:43.000Z,100502.37
2022-08-09T20:37:34.000Z,100506.09
2022-08-09T20:42:34.000Z,100509.96
2022-08-09T20:47:58.000Z,100510.77
2022-08-09T20:52:34.000Z,100511.87
2022-08-09T20:57:42.000Z,100511.97
2022-08-09T21:02:35.000Z,100518.19
2022-08-09T21:07:48.000Z,100516.2
2022-08-09T21:13:08.000Z,100513.14
2022-08-09T21:18:36.000Z,100511.78
2022-08-09T21:28:01.000Z,100507.26
2022-08-09T21:32:45.000Z,100515.18
2022-08-09T21:37:45.000Z,100522.37
2022-08-09T21:42:38.000Z,100519.95
2022-08-09T21:47:36.000Z,100520.47
2022-08-09T21:52:34.000Z,100511.66
2022-08-09T21:57:48.000Z,100511.66
2022-08-09T22:02:46.000Z,100505.56
2022-08-09T22:12:41.000Z,100493.78
2022-08-09T22:17:35.000Z,100491.28
2022-08-09T22:22:35.000Z,100488.92
2022-08-09T22:27:34.000Z,100488.6
2022-08-09T22:32:41.000Z,100486.78
2022-08-09T22:37:37.000Z,100486.78
2022-08-09T22:42:34.000Z,100488.36
2022-08-09T22:48:45.000Z,100483.48
2022-08-09T22:57:45.000Z,100463.56
2022-08-09T23:02:35.000Z,100470.73
2022-08-09T23:08:33.000Z,100465.34
2022-08-09T23:12:34.000Z,100477.69
2022-08-09T23:17:35.000Z,100477.69
2022-08-09T23:22:35.000Z,100486.03
2022-08-09T23:27:35.000Z,100484.79
2022-08-09T23:32:34.000Z,100482.42
2022-08-09T23:37:45.000Z,100484.02
2022-08-09T23:47:35.000Z,100491.93
2022-08-09T23:52:35.000Z,100490.64
2022-08-09T23:57:34.000Z,100490.64
